Aviation Digital Data Service (ADDS)

Output produced by METARs form (1738 UTC 27 May 2017)
found at http://www.aviationweather.gov/adds/metars/
 
LPAZ 271730Z 30022KT 9999 SCT012 BKN015 BKN026 18/14 Q1011
TAF LPAZ 271700Z 2718/2824 29020KT 9999 SCT018 SCT040 
     TEMPO 2718/2720 29025G35KT 8000 SHRA BKN015 
     BECMG 2720/2723 32017KT 
     BECMG 2809/2812 32012KT
       
LPBJ 271700Z 20009KT 170V230 9999 BKN040 26/14 Q1013
TAF LPBJ 271700Z 2718/2818 18013KT 9999 SCT045 
     BECMG 2718/2720 27010KT 
     BECMG 2722/2724 VRB02KT BKN025 
     BECMG 2810/2812 FEW040 
     BECMG 2813/2815 24008KT
       
LPCS 271730Z 30005KT 270V330 9999 FEW020 20/15 Q1013
LPFL 271730Z 34014KT 9999 SCT030 17/11 Q1016
LPFR 271730Z 26008KT 9999 FEW015 20/16 Q1013
TAF LPFR 271700Z 2718/2818 26008KT 9999 FEW030 
     BECMG 2800/2802 VRB03KT FEW008 BKN018 
     PROB30 
     TEMPO 2802/2809 BKN008 
     BECMG 2809/2812 25010KT SCT025
       
LPHR 271730Z 32015G25KT 290V350 8000 VCSH SCT015 BKN028 18/12 Q1013
TAF LPHR 271400Z 2715/2724 30022G35KT 9999 SCT015 SCT030 
     BECMG 2715/2718 33017KT SCT018 SCT040 
     BECMG 2720/2722 33012KT
       
LPLA 271700Z 31022KT 9999 SCT012 BKN020 18/15 Q1011
TAF LPLA 271701Z 2718/2818 30022KT 9999 FEW015 SCT020 
     TEMPO 2718/2720 31022G32KT 7000 -SHRA SCT012 BKN018 
     BECMG 2719/2721 32015KT 
     TEMPO 2720/2721 31015G25KT 
     BECMG 2810/2812 27010KT SCT025
       
LPMA 271730Z VRB04KT 9999 SCT016 21/15 Q1014
TAF LPMA 271700Z 2718/2818 VRB05KT 9999 SCT015 
     BECMG 2718/2721 21012KT 
     BECMG 2721/2724 21017KT SCT013 BKN030 
     PROB30 
     TEMPO 2800/2806 6000 -RA BKN013 
     BECMG 2804/2806 VRB05KT SCT015
       
LPMR 271700Z 30005KT 9999 BKN030 19/13 Q1014
TAF LPMR 271700Z 2718/2818 29005KT 9999 BKN030 
     BECMG 2720/2722 VRB02KT 
     BECMG 2722/2724 SCT006 BKN020 
     BECMG 2808/2810 20010KT SCT035
       
LPMT 271700Z 23007KT 9999 FEW025 SCT040 22/15 Q1013
TAF LPMT 271700Z 2718/2818 26010KT 9999 SCT040 
     BECMG 2803/2806 19005KT BKN025 
     BECMG 2808/2810 20012KT SCT035
       
LPOV 271700Z 32005KT 9999 FEW020 19/15 Q1013
TAF LPOV 271700Z 2718/2818 32005KT 9999 SCT020 
     BECMG 2718/2720 VRB02KT 
     BECMG 2803/2806 19005KT SCT010 BKN025 
     BECMG 2810/2812 22008KT SCT020
       
LPPD 271730Z 32021G31KT 9999 VCSH FEW009 BKN014 17/15 Q1009
TAF LPPD 271700Z 2718/2818 30015KT 9999 SCT015 SCT030 
     TEMPO 2718/2809 BKN015 
     BECMG 2815/2818 30010KT
       
LPPR 271730Z 29005KT 230V340 9999 FEW014 BKN048 18/15 Q1014
TAF LPPR 271700Z 2718/2818 VRB03KT 9999 FEW012 BKN045 
     BECMG 2718/2721 SCT006 BKN025 
     PROB30 
     TEMPO 2721/2809 5000 -RADZ BR SCT003 BKN006 
     BECMG 2809/2812 21010KT SCT018 
     BECMG 2815/2818 18010KT SCT015 BKN030
       
LPPS 271730Z 29008KT 260V320 9999 FEW015 21/14 Q1015
TAF LPPS 271700Z 2718/2824 24008KT 9999 SCT015 
     TEMPO 2718/2724 VRB05KT 
     BECMG 2800/2802 22013KT SCT012 BKN030 
     PROB40 
     TEMPO 2802/2808 5000 -RADZ BKN012 
     BECMG 2806/2808 28013KT SCT015
       
LPPT 271730Z 28005KT 200V010 9999 SCT040 22/15 Q1013
TAF LPPT 271700Z 2718/2824 24008KT 9999 SCT040 
     PROB30 2718/2721 31010KT 
     BECMG 2722/2724 SCT012 
     BECMG 2806/2809 21012KT SCT018 BKN030 
     BECMG 2820/2822 21008KT SCT012
       
LPBJ 271700Z 20009KT 170V230 9999 BKN040 26/14 Q1013
TAF LPBJ 271700Z 2718/2818 18013KT 9999 SCT045 
     BECMG 2718/2720 27010KT 
     BECMG 2722/2724 VRB02KT BKN025 
     BECMG 2810/2812 FEW040 
     BECMG 2813/2815 24008KT
       
LPCS 271730Z 30005KT 270V330 9999 FEW020 20/15 Q1013
LPFR 271730Z 26008KT 9999 FEW015 20/16 Q1013
TAF LPFR 271700Z 2718/2818 26008KT 9999 FEW030 
     BECMG 2800/2802 VRB03KT FEW008 BKN018 
     PROB30 
     TEMPO 2802/2809 BKN008 
     BECMG 2809/2812 25010KT SCT025
       
LPFL 271730Z 34014KT 9999 SCT030 17/11 Q1016
LPHR 271730Z 32015G25KT 290V350 8000 VCSH SCT015 BKN028 18/12 Q1013
TAF LPHR 271400Z 2715/2724 30022G35KT 9999 SCT015 SCT030 
     BECMG 2715/2718 33017KT SCT018 SCT040 
     BECMG 2720/2722 33012KT
       
LPLA 271700Z 31022KT 9999 SCT012 BKN020 18/15 Q1011
TAF LPLA 271701Z 2718/2818 30022KT 9999 FEW015 SCT020 
     TEMPO 2718/2720 31022G32KT 7000 -SHRA SCT012 BKN018 
     BECMG 2719/2721 32015KT 
     TEMPO 2720/2721 31015G25KT 
     BECMG 2810/2812 27010KT SCT025
       
LPPT 271730Z 28005KT 200V010 9999 SCT040 22/15 Q1013
TAF LPPT 271700Z 2718/2824 24008KT 9999 SCT040 
     PROB30 2718/2721 31010KT 
     BECMG 2722/2724 SCT012 
     BECMG 2806/2809 21012KT SCT018 BKN030 
     BECMG 2820/2822 21008KT SCT012
       
LPMA 271730Z VRB04KT 9999 SCT016 21/15 Q1014
TAF LPMA 271700Z 2718/2818 VRB05KT 9999 SCT015 
     BECMG 2718/2721 21012KT 
     BECMG 2721/2724 21017KT SCT013 BKN030 
     PROB30 
     TEMPO 2800/2806 6000 -RA BKN013 
     BECMG 2804/2806 VRB05KT SCT015
       
LPMR 271700Z 30005KT 9999 BKN030 19/13 Q1014
TAF LPMR 271700Z 2718/2818 29005KT 9999 BKN030 
     BECMG 2720/2722 VRB02KT 
     BECMG 2722/2724 SCT006 BKN020 
     BECMG 2808/2810 20010KT SCT035
       
LPMT 271700Z 23007KT 9999 FEW025 SCT040 22/15 Q1013
TAF LPMT 271700Z 2718/2818 26010KT 9999 SCT040 
     BECMG 2803/2806 19005KT BKN025 
     BECMG 2808/2810 20012KT SCT035
       
LPOV 271700Z 32005KT 9999 FEW020 19/15 Q1013
TAF LPOV 271700Z 2718/2818 32005KT 9999 SCT020 
     BECMG 2718/2720 VRB02KT 
     BECMG 2803/2806 19005KT SCT010 BKN025 
     BECMG 2810/2812 22008KT SCT020
       
LPPD 271730Z 32021G31KT 9999 VCSH FEW009 BKN014 17/15 Q1009
TAF LPPD 271700Z 2718/2818 30015KT 9999 SCT015 SCT030 
     TEMPO 2718/2809 BKN015 
     BECMG 2815/2818 30010KT
       
LPPR 271730Z 29005KT 230V340 9999 FEW014 BKN048 18/15 Q1014
TAF LPPR 271700Z 2718/2818 VRB03KT 9999 FEW012 BKN045 
     BECMG 2718/2721 SCT006 BKN025 
     PROB30 
     TEMPO 2721/2809 5000 -RADZ BR SCT003 BKN006 
     BECMG 2809/2812 21010KT SCT018 
     BECMG 2815/2818 18010KT SCT015 BKN030
       
LPPS 271730Z 29008KT 260V320 9999 FEW015 21/14 Q1015
TAF LPPS 271700Z 2718/2824 24008KT 9999 SCT015 
     TEMPO 2718/2724 VRB05KT 
     BECMG 2800/2802 22013KT SCT012 BKN030 
     PROB40 
     TEMPO 2802/2808 5000 -RADZ BKN012 
     BECMG 2806/2808 28013KT SCT015
       
LPAZ 271730Z 30022KT 9999 SCT012 BKN015 BKN026 18/14 Q1011
TAF LPAZ 271700Z 2718/2824 29020KT 9999 SCT018 SCT040 
     TEMPO 2718/2720 29025G35KT 8000 SHRA BKN015 
     BECMG 2720/2723 32017KT 
     BECMG 2809/2812 32012KT